首页
METAR-TAF:

METAR-TAF

机场 :

巴特爾克里克, 密歇根州, 美国

纬度: 42-18-45N, 经度: 085-14-27W, 海拔: 290米

当前天气观测

该预报发布于27分钟前的09:53 UTC
风速5节,风向南转西南
温度 -13°C
湿度 78%
气压 1027 hPa
能見度: 16.1公里
天空无云

METAR: KBTL 130953Z AUTO 20005KT 10SM CLR M13/M16 A3034 RMK AO2 SLP291 T11281156

时间: 05:20 (10:20 UTC)

预报

该预报发布于4小时和40分钟前的05:40 UTC
预报有效从13日的 06点(UTC)到 14日的 06点(UTC)
风速6节,风向南转西南
能見度: 10公里
阴天层高于3500英尺
从 13日的 0900点(UTC)
风速7节,风向
能見度: 10公里
多云层高于15000英尺
从 13日的 1500点(UTC)
风速12节,风向,有时为20节阵风
能見度: 10公里
多云层高于15000英尺
从 13日的 2200点(UTC)
风速10节,风向
能見度: 10公里
散云层高于6000英尺
多云层高于12000英尺
从 14日的 0400点(UTC)
风速10节,风向南转西南
能見度: 10公里
阴天层高于2500英尺

TAF: KBTL 130540Z 1306/1406 21006KT P6SM OVC035 FM130900 18007KT P6SM BKN150 FM131500 18012G20KT P6SM BKN150 FM132200 18010KT P6SM SCT060 BKN120 FM140400 20010KT P6SM OVC025

超过4000个机场的气象观测和天气预报(METAR&TAF报告)。

可查询的气象台以黄色和红色小点在地图上表示。

将鼠标移到小点上方,可查看气象台名称。

然后点击查看天气观测和预报。

如需切换地图:点击带黑十字的绿色按钮放大地图;点击带横线的绿色按钮缩小地图;或者点击绿色箭头查看邻近地区的地图。


METAR-TAF: